createdAt,value
2023-03-02T00:00:16.632Z,-3.42
2023-03-02T00:03:06.590Z,-3.41
2023-03-02T00:05:36.382Z,-3.34
2023-03-02T00:08:05.642Z,-3.30
2023-03-02T00:10:35.742Z,-3.28
2023-03-02T00:13:05.461Z,-3.26
2023-03-02T00:15:34.301Z,-3.25
2023-03-02T00:18:03.556Z,-3.21
2023-03-02T00:20:32.557Z,-3.21
2023-03-02T00:23:01.271Z,-3.26
2023-03-02T00:25:30.230Z,-3.34
2023-03-02T00:27:58.805Z,-3.41
2023-03-02T00:30:27.380Z,-3.44
2023-03-02T00:32:55.930Z,-3.39
2023-03-02T00:35:27.305Z,-3.36
2023-03-02T00:37:55.828Z,-3.38
2023-03-02T00:40:24.739Z,-3.44
2023-03-02T00:42:53.507Z,-3.49
2023-03-02T00:45:22.190Z,-3.51
2023-03-02T00:47:50.745Z,-3.63
2023-03-02T00:50:19.699Z,-3.70
2023-03-02T00:52:48.219Z,-3.68
2023-03-02T00:55:16.878Z,-3.66
2023-03-02T00:57:45.406Z,-3.66
2023-03-02T01:00:14.289Z,-3.65
2023-03-02T01:02:44.712Z,-3.65
2023-03-02T01:05:14.662Z,-3.65
2023-03-02T01:07:43.293Z,-3.66
2023-03-02T01:10:12.374Z,-3.66
2023-03-02T01:12:41.364Z,-3.71
2023-03-02T01:15:11.496Z,-3.76
2023-03-02T01:17:41.565Z,-3.81
2023-03-02T01:20:12.355Z,-3.82
2023-03-02T01:22:41.013Z,-3.84
2023-03-02T01:25:09.986Z,-3.88
2023-03-02T01:27:38.551Z,-3.87
2023-03-02T01:30:08.307Z,-3.80
2023-03-02T01:32:37.097Z,-3.76
2023-03-02T01:35:06.557Z,-3.85
2023-03-02T01:37:35.147Z,-3.98
2023-03-02T01:40:06.830Z,-4.02
2023-03-02T01:42:39.892Z,-4.04
2023-03-02T01:45:46.203Z,-4.00
2023-03-02T01:48:20.884Z,-3.92
2023-03-02T01:50:51.217Z,-3.91
2023-03-02T01:53:21.994Z,-3.89
2023-03-02T01:55:50.794Z,-3.90
2023-03-02T01:58:20.910Z,-3.92
2023-03-02T02:00:50.351Z,-3.98
2023-03-02T02:03:25.170Z,-4.02
2023-03-02T02:06:18.904Z,-4.03
2023-03-02T02:08:49.849Z,-4.02
2023-03-02T02:11:19.413Z,-4.04
2023-03-02T02:13:48.525Z,-4.10
2023-03-02T02:16:17.451Z,-4.10
2023-03-02T02:18:46.742Z,-4.13
2023-03-02T02:21:16.496Z,-4.09
2023-03-02T02:23:58.215Z,-4.03
2023-03-02T02:26:32.062Z,-4.00
2023-03-02T02:29:03.350Z,-3.96
2023-03-02T02:31:46.028Z,-3.86
2023-03-02T02:34:35.292Z,-3.66
2023-03-02T02:37:13.719Z,-3.45
2023-03-02T02:39:46.786Z,-3.29
2023-03-02T02:42:21.312Z,-3.14
2023-03-02T02:44:58.024Z,-3.00
2023-03-02T02:47:26.684Z,-2.84
2023-03-02T02:49:56.904Z,-2.69
2023-03-02T02:52:28.252Z,-2.57
2023-03-02T02:54:58.944Z,-2.45
2023-03-02T02:57:30.732Z,-2.31
2023-03-02T03:00:01.283Z,-2.21
2023-03-02T03:02:37.568Z,-2.13
2023-03-02T03:05:06.891Z,-2.05
2023-03-02T03:07:35.523Z,-2.02
2023-03-02T03:10:14.549Z,-2.00
2023-03-02T03:12:43.795Z,-2.01
2023-03-02T03:15:13.364Z,-2.01
2023-03-02T03:17:41.925Z,-2.00
2023-03-02T03:20:16.374Z,-2.01
2023-03-02T03:22:45.165Z,-1.99
2023-03-02T03:25:15.714Z,-1.92
2023-03-02T03:27:44.980Z,-1.86
2023-03-02T03:30:15.176Z,-1.83
2023-03-02T03:32:44.331Z,-1.82
2023-03-02T03:35:13.715Z,-1.81
2023-03-02T03:37:43.795Z,-1.77
2023-03-02T03:40:12.508Z,-1.75
2023-03-02T03:42:41.444Z,-1.72
2023-03-02T03:45:10.610Z,-1.64
2023-03-02T03:47:40.150Z,-1.60
2023-03-02T03:50:09.404Z,-1.56
2023-03-02T03:52:37.952Z,-1.54
2023-03-02T03:55:07.219Z,-1.53
2023-03-02T03:57:36.438Z,-1.53
2023-03-02T04:00:08.459Z,-1.51
2023-03-02T04:02:38.452Z,-1.50
2023-03-02T04:05:08.586Z,-1.46
2023-03-02T04:07:38.549Z,-1.45
2023-03-02T04:10:08.972Z,-1.41
2023-03-02T04:12:40.707Z,-1.39
2023-03-02T04:15:15.761Z,-1.39
2023-03-02T04:17:45.387Z,-1.33
2023-03-02T04:20:17.651Z,-1.28
2023-03-02T04:22:48.652Z,-1.29
2023-03-02T04:25:20.781Z,-1.29
2023-03-02T04:27:51.288Z,-1.30
2023-03-02T04:30:23.912Z,-1.29
2023-03-02T04:32:52.975Z,-1.28
2023-03-02T04:35:21.692Z,-1.20
2023-03-02T04:37:50.496Z,-1.15
2023-03-02T04:40:19.066Z,-1.10
2023-03-02T04:42:49.003Z,-1.02
2023-03-02T04:45:18.698Z,-0.93
2023-03-02T04:47:47.312Z,-0.89
2023-03-02T04:50:16.415Z,-0.86
2023-03-02T04:52:45.083Z,-0.85
2023-03-02T04:55:23.039Z,-0.86
2023-03-02T04:57:51.505Z,-0.88
2023-03-02T05:00:21.364Z,-0.87
2023-03-02T05:02:50.622Z,-0.86
2023-03-02T05:05:23.895Z,-0.82
2023-03-02T05:07:53.271Z,-0.78
2023-03-02T05:10:23.016Z,-0.80
2023-03-02T05:12:55.026Z,-0.82
2023-03-02T05:15:36.614Z,-0.79
2023-03-02T05:18:08.607Z,-0.81
2023-03-02T05:20:37.814Z,-0.82
2023-03-02T05:23:09.448Z,-0.84
2023-03-02T05:25:39.229Z,-0.87
2023-03-02T05:28:08.330Z,-0.86
2023-03-02T05:30:38.131Z,-0.83
2023-03-02T05:33:07.332Z,-0.78
2023-03-02T05:35:36.686Z,-0.73
2023-03-02T05:38:06.473Z,-0.69
2023-03-02T05:40:35.535Z,-0.67
2023-03-02T05:43:05.270Z,-0.61
2023-03-02T05:45:38.966Z,-0.55
2023-03-02T05:48:09.430Z,-0.45
2023-03-02T05:50:38.486Z,-0.40
2023-03-02T05:53:07.273Z,-0.38
2023-03-02T05:55:38.877Z,-0.40
2023-03-02T05:58:12.188Z,-0.44
2023-03-02T06:00:41.687Z,-0.43
2023-03-02T06:03:10.389Z,-0.42
2023-03-02T06:05:39.343Z,-0.43
2023-03-02T06:08:08.243Z,-0.35
2023-03-02T06:10:36.886Z,-0.29
2023-03-02T06:13:05.483Z,-0.21
2023-03-02T06:15:35.096Z,-0.12
2023-03-02T06:18:04.237Z,-0.01
2023-03-02T06:20:33.439Z,0.02
2023-03-02T06:23:02.137Z,0.02
2023-03-02T06:25:30.975Z,0.15
2023-03-02T06:27:59.454Z,0.23
2023-03-02T06:30:28.658Z,0.37
2023-03-02T06:32:57.163Z,0.47
2023-03-02T06:35:25.799Z,0.58
2023-03-02T06:37:54.273Z,0.64
2023-03-02T06:40:22.790Z,0.65
2023-03-02T06:42:51.234Z,0.68
2023-03-02T06:45:19.908Z,0.72
2023-03-02T06:47:48.518Z,0.81
2023-03-02T06:50:17.179Z,0.84
2023-03-02T06:52:45.819Z,0.81
2023-03-02T06:55:14.347Z,0.85
2023-03-02T06:57:42.996Z,0.89
2023-03-02T07:00:25.862Z,0.92
2023-03-02T07:02:56.659Z,0.99
2023-03-02T07:05:25.303Z,1.03
2023-03-02T07:07:54.443Z,1.08
2023-03-02T07:10:23.118Z,1.12
2023-03-02T07:12:53.071Z,1.18
2023-03-02T07:15:22.056Z,1.20
2023-03-02T07:17:50.658Z,1.23
2023-03-02T07:20:19.601Z,1.30
2023-03-02T07:22:48.286Z,1.34
2023-03-02T07:25:17.033Z,1.35
2023-03-02T07:27:45.602Z,1.32
2023-03-02T07:30:15.509Z,1.31
2023-03-02T07:32:44.111Z,1.34
2023-03-02T07:35:12.698Z,1.37
2023-03-02T07:37:41.867Z,1.40
2023-03-02T07:40:11.903Z,1.49
2023-03-02T07:42:40.981Z,1.55
2023-03-02T07:45:11.943Z,1.59
2023-03-02T07:47:40.694Z,1.64
2023-03-02T07:50:10.232Z,1.65
2023-03-02T07:52:38.822Z,1.59
2023-03-02T07:55:07.672Z,1.53
2023-03-02T07:57:36.780Z,1.52
2023-03-02T08:00:06.179Z,1.52
2023-03-02T08:02:35.295Z,1.51
2023-03-02T08:05:04.129Z,1.51
2023-03-02T08:07:33.184Z,1.55
2023-03-02T08:10:01.784Z,1.56
2023-03-02T08:12:30.431Z,1.60
2023-03-02T08:14:59.105Z,1.62
2023-03-02T08:17:27.844Z,1.64
2023-03-02T08:19:56.519Z,1.60
2023-03-02T08:22:25.677Z,1.61
2023-03-02T08:24:54.158Z,1.65
2023-03-02T08:27:23.084Z,1.73
2023-03-02T08:29:51.638Z,1.76
2023-03-02T08:32:20.862Z,1.80
2023-03-02T08:34:52.070Z,1.82
2023-03-02T08:37:21.206Z,1.85
2023-03-02T08:39:49.994Z,1.91
2023-03-02T08:42:18.727Z,1.92
2023-03-02T08:44:47.438Z,1.98
2023-03-02T08:47:16.028Z,1.97
2023-03-02T08:49:45.565Z,2.00
2023-03-02T08:52:15.698Z,1.96
2023-03-02T08:54:44.435Z,1.92
2023-03-02T08:57:13.672Z,1.93
2023-03-02T08:59:42.640Z,1.93
2023-03-02T09:02:12.759Z,1.82
2023-03-02T09:04:42.258Z,1.71
2023-03-02T09:07:11.392Z,1.61
2023-03-02T09:09:40.052Z,1.51
2023-03-02T09:12:08.656Z,1.46
2023-03-02T09:14:37.799Z,1.40
2023-03-02T09:17:06.880Z,1.38
2023-03-02T09:19:44.286Z,1.46
2023-03-02T09:22:13.387Z,1.50
2023-03-02T09:24:41.942Z,1.44
2023-03-02T09:27:10.764Z,1.42
2023-03-02T09:29:39.444Z,1.42
2023-03-02T09:32:08.140Z,1.42
2023-03-02T09:34:36.964Z,1.45
2023-03-02T09:37:05.908Z,1.51
2023-03-02T09:39:35.026Z,1.61
2023-03-02T09:42:48.880Z,1.71
2023-03-02T09:45:46.270Z,1.76
2023-03-02T09:48:42.797Z,1.90
2023-03-02T09:51:36.850Z,2.16
2023-03-02T09:54:13.027Z,2.40
2023-03-02T09:56:49.767Z,2.61
2023-03-02T09:59:22.135Z,2.76
2023-03-02T10:02:04.413Z,2.91
2023-03-02T10:04:45.475Z,3.09
2023-03-02T10:07:16.315Z,3.06
2023-03-02T10:09:45.298Z,2.97
2023-03-02T10:12:41.513Z,2.81
2023-03-02T10:15:41.168Z,2.75
2023-03-02T10:18:21.614Z,2.74
2023-03-02T10:21:01.172Z,2.71
2023-03-02T10:23:44.705Z,2.70
2023-03-02T10:26:32.141Z,2.74
2023-03-02T10:29:19.544Z,2.92
2023-03-02T10:31:55.816Z,3.15
2023-03-02T10:34:29.768Z,3.14
2023-03-02T10:36:58.932Z,3.10
2023-03-02T10:39:27.568Z,3.16
2023-03-02T10:42:04.001Z,3.34
2023-03-02T10:44:39.293Z,3.34
2023-03-02T10:47:08.884Z,3.39
2023-03-02T10:49:42.886Z,3.54
2023-03-02T10:52:32.750Z,3.69
2023-03-02T10:55:14.096Z,3.84
2023-03-02T10:57:44.822Z,3.73
2023-03-02T11:00:25.655Z,3.51
2023-03-02T11:03:18.665Z,3.46
2023-03-02T11:05:48.126Z,3.52
2023-03-02T11:08:25.845Z,3.50
2023-03-02T11:11:03.646Z,3.65
2023-03-02T11:13:37.540Z,3.65
2023-03-02T11:16:28.717Z,3.48
2023-03-02T11:19:15.499Z,3.36
2023-03-02T11:22:03.373Z,3.13
2023-03-02T11:24:55.536Z,3.00
2023-03-02T11:27:33.884Z,3.19
2023-03-02T11:30:22.948Z,3.40
2023-03-02T11:33:01.014Z,3.51
2023-03-02T11:35:47.986Z,3.38
2023-03-02T11:38:28.875Z,3.10
2023-03-02T11:41:24.873Z,2.91
2023-03-02T11:43:55.402Z,2.91
2023-03-02T11:46:34.090Z,3.02
2023-03-02T11:49:07.606Z,2.96
2023-03-02T11:51:47.169Z,2.75
2023-03-02T11:55:00.568Z,2.76
2023-03-02T11:57:37.105Z,2.82
2023-03-02T12:00:22.606Z,2.76
2023-03-02T12:03:15.998Z,2.71
2023-03-02T12:05:51.903Z,2.62
2023-03-02T12:08:20.397Z,2.58
2023-03-02T12:11:09.160Z,2.48
2023-03-02T12:13:40.400Z,2.50
2023-03-02T12:16:41.336Z,2.55
2023-03-02T12:19:39.196Z,2.60
2023-03-02T12:22:12.618Z,2.62
2023-03-02T12:24:45.543Z,2.65
2023-03-02T12:27:39.367Z,2.73
2023-03-02T12:30:18.723Z,2.90
2023-03-02T12:33:04.357Z,3.09
2023-03-02T12:35:34.916Z,3.19
2023-03-02T12:38:08.444Z,3.34
2023-03-02T12:40:39.960Z,3.43
2023-03-02T12:43:21.847Z,3.46
2023-03-02T12:46:26.354Z,3.61
2023-03-02T12:49:17.142Z,3.74
2023-03-02T12:51:56.715Z,3.62
2023-03-02T12:54:31.396Z,3.49
2023-03-02T12:57:19.524Z,3.25
2023-03-02T12:59:58.599Z,3.01
2023-03-02T13:02:30.236Z,2.86
2023-03-02T13:05:30.206Z,2.78
2023-03-02T13:08:05.047Z,2.69
2023-03-02T13:10:37.671Z,2.55
2023-03-02T13:13:20.870Z,2.46
2023-03-02T13:15:56.189Z,2.55
2023-03-02T13:18:32.310Z,2.71
2023-03-02T13:21:05.362Z,2.75
2023-03-02T13:23:34.889Z,2.78
2023-03-02T13:26:05.827Z,2.70
2023-03-02T13:28:38.221Z,2.59
2023-03-02T13:31:25.250Z,2.51
2023-03-02T13:33:56.140Z,2.45
2023-03-02T13:36:31.603Z,2.38
2023-03-02T13:39:01.260Z,2.35
2023-03-02T13:41:32.971Z,2.42
2023-03-02T13:44:23.458Z,2.61
2023-03-02T13:46:52.774Z,2.82
2023-03-02T13:49:33.162Z,2.96
2023-03-02T13:52:03.636Z,3.02
2023-03-02T13:54:35.767Z,3.01
2023-03-02T13:57:06.413Z,2.97
2023-03-02T13:59:36.839Z,2.89
2023-03-02T14:02:25.896Z,2.87
2023-03-02T14:04:54.687Z,2.97
2023-03-02T14:07:26.169Z,3.00
2023-03-02T14:09:57.240Z,3.01
2023-03-02T14:12:30.956Z,3.07
2023-03-02T14:15:03.093Z,3.17
2023-03-02T14:17:31.820Z,3.36
2023-03-02T14:20:00.887Z,3.46
2023-03-02T14:22:30.592Z,3.51
2023-03-02T14:24:59.635Z,3.55
2023-03-02T14:27:31.224Z,3.53
2023-03-02T14:30:01.033Z,3.45
2023-03-02T14:32:29.861Z,3.16
2023-03-02T14:34:58.380Z,3.03
2023-03-02T14:37:30.474Z,3.08
2023-03-02T14:39:59.615Z,3.18
2023-03-02T14:42:28.299Z,3.23
2023-03-02T14:44:58.514Z,3.15
2023-03-02T14:47:28.555Z,2.92
2023-03-02T14:49:57.177Z,2.86
2023-03-02T14:52:32.305Z,2.77
2023-03-02T14:55:07.176Z,2.80
2023-03-02T14:57:38.954Z,2.73
2023-03-02T15:00:09.405Z,2.61
2023-03-02T15:02:38.162Z,2.38
2023-03-02T15:05:07.954Z,2.30
2023-03-02T15:07:37.463Z,2.28
2023-03-02T15:10:07.617Z,2.30
2023-03-02T15:12:36.274Z,2.26
2023-03-02T15:15:05.324Z,2.22
2023-03-02T15:17:33.820Z,2.14
2023-03-02T15:20:02.541Z,2.14
2023-03-02T15:22:31.067Z,2.20
2023-03-02T15:24:59.643Z,2.09
2023-03-02T15:27:28.244Z,1.88
2023-03-02T15:29:57.315Z,1.79
2023-03-02T15:32:26.879Z,1.85
2023-03-02T15:34:55.696Z,2.06
2023-03-02T15:37:24.873Z,2.21
2023-03-02T15:39:55.592Z,2.25
2023-03-02T15:42:24.326Z,2.13
2023-03-02T15:44:53.469Z,1.93
2023-03-02T15:47:22.411Z,1.92
2023-03-02T15:49:51.077Z,2.08
2023-03-02T15:52:21.338Z,2.21
2023-03-02T15:54:49.966Z,2.43
2023-03-02T15:57:19.361Z,2.53
2023-03-02T15:59:47.833Z,2.63
2023-03-02T16:02:16.590Z,2.73
2023-03-02T16:04:45.432Z,2.69
2023-03-02T16:07:14.049Z,2.78
2023-03-02T16:09:45.808Z,2.78
2023-03-02T16:12:15.187Z,2.73
2023-03-02T16:14:44.135Z,2.57
2023-03-02T16:17:12.903Z,2.33
2023-03-02T16:19:41.713Z,2.02
2023-03-02T16:22:10.976Z,1.77
2023-03-02T16:24:41.896Z,1.61
2023-03-02T16:27:10.761Z,1.61
2023-03-02T16:29:39.933Z,1.69
2023-03-02T16:32:10.651Z,1.80
2023-03-02T16:34:40.016Z,1.81
2023-03-02T16:37:09.744Z,1.74
2023-03-02T16:39:38.761Z,1.86
2023-03-02T16:42:07.821Z,1.91
2023-03-02T16:44:38.289Z,1.88
2023-03-02T16:47:07.462Z,1.78
2023-03-02T16:49:36.031Z,1.65
2023-03-02T16:52:05.110Z,1.61
2023-03-02T16:54:35.303Z,1.62
2023-03-02T16:57:04.721Z,1.71
2023-03-02T16:59:33.587Z,1.84
2023-03-02T17:02:02.453Z,1.97
2023-03-02T17:04:34.028Z,1.98
2023-03-02T17:07:05.597Z,1.90
2023-03-02T17:09:36.776Z,1.87
2023-03-02T17:12:05.942Z,1.86
2023-03-02T17:14:35.123Z,1.79
2023-03-02T17:17:04.535Z,1.74
2023-03-02T17:19:33.730Z,1.69
2023-03-02T17:22:04.172Z,1.70
2023-03-02T17:24:33.630Z,1.64
2023-03-02T17:27:04.247Z,1.64
2023-03-02T17:29:36.084Z,1.50
2023-03-02T17:32:06.742Z,1.26
2023-03-02T17:34:37.141Z,1.08
2023-03-02T17:37:07.115Z,1.03
2023-03-02T17:39:41.072Z,1.05
2023-03-02T17:42:10.442Z,0.99
2023-03-02T17:44:41.101Z,0.96
2023-03-02T17:47:10.095Z,0.97
2023-03-02T17:49:41.336Z,0.97
2023-03-02T17:52:10.572Z,1.05
2023-03-02T17:54:40.418Z,1.12
2023-03-02T17:57:11.409Z,1.24
2023-03-02T17:59:40.976Z,1.11
2023-03-02T18:02:11.293Z,1.02
2023-03-02T18:04:41.214Z,1.08
2023-03-02T18:07:10.124Z,0.98
2023-03-02T18:09:40.571Z,1.08
2023-03-02T18:12:10.897Z,1.25
2023-03-02T18:14:41.276Z,1.37
2023-03-02T18:17:13.056Z,1.39
2023-03-02T18:19:42.796Z,1.40
2023-03-02T18:22:12.317Z,1.41
2023-03-02T18:24:46.576Z,1.48
2023-03-02T18:27:15.594Z,1.51
2023-03-02T18:29:46.381Z,1.58
2023-03-02T18:32:16.376Z,1.61
2023-03-02T18:34:45.869Z,1.56
2023-03-02T18:37:17.831Z,1.55
2023-03-02T18:39:48.807Z,1.56
2023-03-02T18:42:18.967Z,1.43
2023-03-02T18:44:50.088Z,1.36
2023-03-02T18:47:21.212Z,1.45
2023-03-02T18:49:50.705Z,1.55
2023-03-02T18:52:21.574Z,1.62
2023-03-02T18:54:51.355Z,1.72
2023-03-02T18:57:23.331Z,1.73
2023-03-02T18:59:54.892Z,1.55
2023-03-02T19:02:25.636Z,1.43
2023-03-02T19:04:56.684Z,1.39
2023-03-02T19:07:26.879Z,1.47
2023-03-02T19:09:57.626Z,1.55
2023-03-02T19:12:28.496Z,1.65
2023-03-02T19:15:00.018Z,1.59
2023-03-02T19:17:32.690Z,1.53
2023-03-02T19:20:04.516Z,1.58
2023-03-02T19:22:36.129Z,1.62
2023-03-02T19:25:07.820Z,1.45
2023-03-02T19:27:38.211Z,1.46
2023-03-02T19:30:12.854Z,1.51
2023-03-02T19:32:43.112Z,1.57
2023-03-02T19:35:20.892Z,1.61
2023-03-02T19:37:54.022Z,1.57
2023-03-02T19:40:31.853Z,1.44
2023-03-02T19:43:03.498Z,1.19
2023-03-02T19:45:36.038Z,1.08
2023-03-02T19:48:08.696Z,0.84
2023-03-02T19:50:38.978Z,0.80
2023-03-02T19:53:10.973Z,0.77
2023-03-02T19:55:43.595Z,0.82
2023-03-02T19:58:18.363Z,0.76
2023-03-02T20:00:48.850Z,0.73
2023-03-02T20:03:21.444Z,0.71
2023-03-02T20:05:51.857Z,0.66
2023-03-02T20:08:23.447Z,0.60
2023-03-02T20:10:54.056Z,0.59
2023-03-02T20:13:27.333Z,0.70
2023-03-02T20:15:57.929Z,0.76
2023-03-02T20:18:30.802Z,0.82
2023-03-02T20:21:02.705Z,0.93
2023-03-02T20:23:33.353Z,1.05
2023-03-02T20:26:06.664Z,1.18
2023-03-02T20:28:38.147Z,1.24
2023-03-02T20:31:14.100Z,1.28
2023-03-02T20:33:50.972Z,1.26
2023-03-02T20:36:32.645Z,1.08
2023-03-02T20:39:13.683Z,1.01
2023-03-02T20:41:44.682Z,1.09
2023-03-02T20:44:16.456Z,1.10
2023-03-02T20:46:52.484Z,1.15
2023-03-02T20:49:26.516Z,1.17
2023-03-02T20:51:58.399Z,1.08
2023-03-02T20:54:35.981Z,1.09
2023-03-02T20:57:10.242Z,1.13
2023-03-02T20:59:40.262Z,1.16
2023-03-02T21:02:11.524Z,1.18
2023-03-02T21:04:42.206Z,1.14
2023-03-02T21:07:13.277Z,1.08
2023-03-02T21:09:45.609Z,1.03
2023-03-02T21:12:16.222Z,1.06
2023-03-02T21:14:46.000Z,1.05
2023-03-02T21:17:15.261Z,1.03
2023-03-02T21:19:44.752Z,1.07
2023-03-02T21:22:14.045Z,1.12
2023-03-02T21:24:43.550Z,1.16
2023-03-02T21:27:12.953Z,1.10
2023-03-02T21:29:42.536Z,1.07
2023-03-02T21:32:13.043Z,1.09
2023-03-02T21:34:42.248Z,1.15
2023-03-02T21:37:11.434Z,1.21
2023-03-02T21:39:40.593Z,1.25
2023-03-02T21:42:09.982Z,1.28
2023-03-02T21:44:40.275Z,1.29
2023-03-02T21:47:09.653Z,1.28
2023-03-02T21:49:39.076Z,1.23
2023-03-02T21:52:08.443Z,1.21
2023-03-02T21:54:37.294Z,1.17
2023-03-02T21:57:08.596Z,1.10
2023-03-02T21:59:37.649Z,1.10
2023-03-02T22:02:06.501Z,1.11
2023-03-02T22:04:35.888Z,1.12
2023-03-02T22:07:05.288Z,1.10
2023-03-02T22:09:34.351Z,1.08
2023-03-02T22:12:12.293Z,1.06
2023-03-02T22:14:41.525Z,0.98
2023-03-02T22:17:22.240Z,0.91
2023-03-02T22:19:52.670Z,0.86
2023-03-02T22:22:27.363Z,0.79
2023-03-02T22:24:56.674Z,0.81
2023-03-02T22:27:30.234Z,0.84
2023-03-02T22:30:00.119Z,0.88
2023-03-02T22:32:37.470Z,0.90
2023-03-02T22:35:27.302Z,0.90
2023-03-02T22:38:02.521Z,0.94
2023-03-02T22:40:34.122Z,0.91
2023-03-02T22:43:29.717Z,0.88
2023-03-02T22:46:22.030Z,0.89
2023-03-02T22:48:53.109Z,0.89
2023-03-02T22:51:24.659Z,0.81
2023-03-02T22:54:00.063Z,0.73
2023-03-02T22:56:35.662Z,0.73
2023-03-02T22:59:22.269Z,0.75
2023-03-02T23:01:53.397Z,0.74
2023-03-02T23:04:25.198Z,0.65
2023-03-02T23:06:56.913Z,0.57
2023-03-02T23:09:28.788Z,0.45
2023-03-02T23:12:01.626Z,0.41
2023-03-02T23:14:55.731Z,0.33
2023-03-02T23:17:39.325Z,0.25
2023-03-02T23:20:13.095Z,0.26
2023-03-02T23:22:42.976Z,0.20
2023-03-02T23:25:11.686Z,0.18
2023-03-02T23:27:40.452Z,0.20
2023-03-02T23:30:10.112Z,0.20
2023-03-02T23:32:39.399Z,0.19
2023-03-02T23:35:08.904Z,0.21
2023-03-02T23:37:37.999Z,0.18
2023-03-02T23:40:08.491Z,0.20
2023-03-02T23:42:38.420Z,0.17
2023-03-02T23:45:08.649Z,0.15
2023-03-02T23:47:37.647Z,0.19
2023-03-02T23:50:06.893Z,0.23
2023-03-02T23:52:35.442Z,0.23
2023-03-02T23:55:05.424Z,0.22
2023-03-02T23:57:34.326Z,0.22
